Time,TemperatureF,DewpointF,PressureIn,WindDirection,WindDirectionDegrees,WindSpeedMPH,WindSpeedGustMPH,Humidity,HourlyPrecipIn,Conditions,Clouds,dailyrainin,SoftwareType,DateUTC
2013-06-06 00:02:00,61.0,52.0,-100.00,NNW,340,5.0,6.0,71,0.00,,,-99.99,,2013-06-06 05:02:00,
2013-06-06 00:12:00,61.0,52.0,-100.00,NNW,340,4.0,6.0,72,0.00,,,-99.99,,2013-06-06 05:12:00,
2013-06-06 00:22:00,61.0,52.0,-100.00,NNW,340,6.0,6.0,74,0.00,,,-99.99,,2013-06-06 05:22:00,
2013-06-06 00:32:00,60.0,52.0,-100.00,NW,325,3.0,4.0,73,0.00,,,-99.99,,2013-06-06 05:32:00,
2013-06-06 00:42:00,60.0,52.0,-100.00,NW,325,3.0,4.0,73,0.00,,,-99.99,,2013-06-06 05:42:00,
2013-06-06 00:52:00,59.0,53.0,-100.00,NW,305,1.0,2.0,80,0.00,,,-99.99,,2013-06-06 05:52:00,
2013-06-06 01:02:00,59.0,53.0,-100.00,NW,305,1.0,2.0,80,0.00,,,-99.99,,2013-06-06 06:02:00,
2013-06-06 01:12:00,59.0,54.0,-100.00,NW,305,1.0,1.0,83,0.00,,,-99.99,,2013-06-06 06:12:00,
2013-06-06 01:22:00,59.0,54.0,-100.00,WNW,295,2.0,2.0,84,0.00,,,-99.99,,2013-06-06 06:22:00,
2013-06-06 01:32:00,58.0,54.0,-100.00,NNW,335,2.0,4.0,86,0.00,,,-99.99,,2013-06-06 06:32:00,
2013-06-06 01:42:00,58.0,54.0,-100.00,NNW,335,2.0,4.0,86,0.00,,,-99.99,,2013-06-06 06:42:00,
2013-06-06 01:52:00,59.0,54.0,-100.00,NNW,335,4.0,6.0,84,0.00,,,-99.99,,2013-06-06 06:52:00,
2013-06-06 02:02:00,59.0,54.0,-100.00,NNW,335,4.0,6.0,84,0.00,,,-99.99,,2013-06-06 07:02:00,
2013-06-06 02:12:00,59.0,53.0,-100.00,NNW,335,5.0,6.0,82,0.00,,,-99.99,,2013-06-06 07:12:00,
2013-06-06 02:22:00,58.0,53.0,-100.00,NNW,335,5.0,6.0,82,0.00,,,-99.99,,2013-06-06 07:22:00,
2013-06-06 02:32:00,57.0,53.0,-100.00,NNW,345,7.0,9.0,85,0.00,,,-99.99,,2013-06-06 07:32:00,
2013-06-06 02:42:00,57.0,53.0,-100.00,NNW,345,7.0,9.0,85,0.00,,,-99.99,,2013-06-06 07:42:00,
2013-06-06 02:52:00,56.0,53.0,-100.00,NNW,340,7.0,8.0,87,0.00,,,-99.99,,2013-06-06 07:52:00,
2013-06-06 03:02:00,56.0,53.0,-100.00,NNW,340,7.0,8.0,87,0.00,,,-99.99,,2013-06-06 08:02:00,
2013-06-06 03:12:00,56.0,53.0,-100.00,NNW,335,6.0,7.0,87,0.00,,,-99.99,,2013-06-06 08:12:00,
2013-06-06 03:22:00,56.0,53.0,-100.00,NW,310,2.0,5.0,87,0.00,,,-99.99,,2013-06-06 08:22:00,
2013-06-06 03:32:00,56.0,53.0,-100.00,NW,320,4.0,4.0,88,0.00,,,-99.99,,2013-06-06 08:32:00,
2013-06-06 03:42:00,56.0,53.0,-100.00,North,350,4.0,4.0,88,0.00,,,-99.99,,2013-06-06 08:42:00,
2013-06-06 03:52:00,55.0,53.0,-100.00,North,0,6.0,6.0,89,0.00,,,-99.99,,2013-06-06 08:52:00,
2013-06-06 04:02:00,55.0,53.0,-100.00,North,0,6.0,6.0,89,0.00,,,-99.99,,2013-06-06 09:02:00,
2013-06-06 04:12:00,55.0,52.0,-100.00,NNE,15,3.0,6.0,90,0.00,,,-99.99,,2013-06-06 09:12:00,
2013-06-06 04:22:00,55.0,52.0,-100.00,North,0,2.0,4.0,91,0.00,,,-99.99,,2013-06-06 09:22:00,
2013-06-06 04:33:00,55.0,52.0,-100.00,ESE,115,1.0,2.0,91,0.00,,,-99.99,,2013-06-06 09:33:00,
2013-06-06 04:43:00,55.0,52.0,-100.00,ESE,115,1.0,2.0,91,0.00,,,-99.99,,2013-06-06 09:43:00,
2013-06-06 04:53:00,54.0,52.0,-100.00,ENE,65,1.0,4.0,92,0.00,,,-99.99,,2013-06-06 09:53:00,
2013-06-06 05:03:00,54.0,52.0,-100.00,ENE,65,1.0,4.0,92,0.00,,,-99.99,,2013-06-06 10:03:00,
2013-06-06 05:12:00,54.0,52.0,-100.00,SE,130,0.0,1.0,92,0.00,,,-99.99,,2013-06-06 10:12:00,
2013-06-06 05:22:00,54.0,52.0,-100.00,NNW,345,0.0,1.0,92,0.24,,,-99.99,,2013-06-06 10:22:00,
2013-06-06 05:33:00,54.0,52.0,-100.00,NW,305,2.0,2.0,92,0.00,,,-99.99,,2013-06-06 10:33:00,
2013-06-06 05:42:00,54.0,52.0,-100.00,NW,305,2.0,2.0,92,0.00,,,-99.99,,2013-06-06 10:42:00,
2013-06-06 05:52:00,54.0,52.0,-100.00,NNW,335,4.0,4.0,92,0.00,,,-99.99,,2013-06-06 10:52:00,
2013-06-06 06:02:00,54.0,52.0,-100.00,NNW,335,4.0,4.0,92,0.00,,,-99.99,,2013-06-06 11:02:00,
2013-06-06 06:12:00,55.0,52.0,-100.00,NW,310,2.0,4.0,92,0.00,,,-99.99,,2013-06-06 11:12:00,
2013-06-06 06:22:00,55.0,52.0,-100.00,NW,325,3.0,5.0,92,0.00,,,-99.99,,2013-06-06 11:22:00,
2013-06-06 06:32:00,54.0,52.0,-100.00,West,280,2.0,4.0,92,0.00,,,-99.99,,2013-06-06 11:32:00,
2013-06-06 06:42:00,54.0,52.0,-100.00,West,280,2.0,4.0,92,0.00,,,-99.99,,2013-06-06 11:42:00,
2013-06-06 06:52:00,55.0,53.0,-100.00,WNW,285,4.0,4.0,92,0.00,,,-99.99,,2013-06-06 11:52:00,
2013-06-06 07:02:00,55.0,53.0,-100.00,WNW,285,4.0,4.0,92,0.00,,,-99.99,,2013-06-06 12:02:00,
2013-06-06 07:12:00,55.0,53.0,-100.00,WNW,300,4.0,5.0,92,0.00,,,-99.99,,2013-06-06 12:12:00,
2013-06-06 07:22:00,55.0,53.0,-100.00,NW,315,4.0,6.0,92,0.00,,,-99.99,,2013-06-06 12:22:00,
2013-06-06 07:33:00,56.0,54.0,-100.00,NW,305,2.0,6.0,91,0.00,,,-99.99,,2013-06-06 12:33:00,
2013-06-06 07:42:00,56.0,54.0,-100.00,NW,305,2.0,6.0,91,0.00,,,-99.99,,2013-06-06 12:42:00,
2013-06-06 07:52:00,57.0,55.0,-100.00,NW,310,4.0,6.0,91,0.00,,,-99.99,,2013-06-06 12:52:00,
2013-06-06 08:03:00,57.0,55.0,-100.00,NW,310,4.0,6.0,91,0.00,,,-99.99,,2013-06-06 13:03:00,
2013-06-06 08:12:00,58.0,55.0,-100.00,NW,315,4.0,7.0,91,0.00,,,-99.99,,2013-06-06 13:12:00,
2013-06-06 08:22:00,58.0,55.0,-100.00,NW,315,4.0,6.0,91,0.00,,,-99.99,,2013-06-06 13:22:00,
2013-06-06 08:32:00,61.0,56.0,-100.00,NNW,335,5.0,8.0,84,0.00,,,-99.99,,2013-06-06 13:32:00,
2013-06-06 08:42:00,61.0,56.0,-100.00,NNW,335,5.0,8.0,84,0.00,,,-99.99,,2013-06-06 13:42:00,
2013-06-06 08:52:00,62.0,56.0,-100.00,NNW,340,6.0,10.0,80,0.24,,,-99.99,,2013-06-06 13:52:00,
2013-06-06 09:03:00,62.0,56.0,-100.00,NNW,340,6.0,10.0,80,0.24,,,-99.99,,2013-06-06 14:03:00,
2013-06-06 09:12:00,63.0,56.0,-100.00,North,355,7.0,10.0,79,0.00,,,-99.99,,2013-06-06 14:12:00,
2013-06-06 09:22:00,63.0,56.0,-100.00,North,10,9.0,12.0,78,0.00,,,-99.99,,2013-06-06 14:22:00,
2013-06-06 09:33:00,64.0,57.0,-100.00,North,0,9.0,12.0,77,0.00,,,-99.99,,2013-06-06 14:33:00,
2013-06-06 09:43:00,64.0,57.0,-100.00,North,0,9.0,12.0,77,0.00,,,-99.99,,2013-06-06 14:43:00,
2013-06-06 09:52:00,65.0,57.0,-100.00,North,0,9.0,14.0,73,0.00,,,-99.99,,2013-06-06 14:52:00,
2013-06-06 10:03:00,65.0,57.0,-100.00,North,0,9.0,14.0,73,0.00,,,-99.99,,2013-06-06 15:03:00,
2013-06-06 10:12:00,66.0,57.0,-100.00,NNE,20,12.0,14.0,72,0.00,,,-99.99,,2013-06-06 15:12:00,
2013-06-06 10:23:00,67.0,57.0,-100.00,North,5,14.0,18.0,70,0.00,,,-99.99,,2013-06-06 15:23:00,
2013-06-06 10:33:00,67.0,56.0,-100.00,North,0,13.0,18.0,68,0.00,,,-99.99,,2013-06-06 15:33:00,
2013-06-06 10:43:00,67.0,56.0,-100.00,North,0,13.0,18.0,68,0.00,,,-99.99,,2013-06-06 15:43:00,
2013-06-06 10:52:00,68.0,56.0,-100.00,North,0,12.0,21.0,64,0.00,,,-99.99,,2013-06-06 15:52:00,
2013-06-06 11:03:00,68.0,56.0,-100.00,North,0,12.0,21.0,64,0.00,,,-99.99,,2013-06-06 16:03:00,
2013-06-06 11:12:00,69.0,57.0,-100.00,NNE,30,13.0,17.0,63,0.00,,,-99.99,,2013-06-06 16:12:00,
2013-06-06 11:23:00,69.0,57.0,-100.00,NNE,30,13.0,17.0,63,0.00,,,-99.99,,2013-06-06 16:23:00,
2013-06-06 11:33:00,68.0,54.0,-100.00,NNE,15,11.0,18.0,60,0.00,,,-99.99,,2013-06-06 16:33:00,
2013-06-06 11:43:00,68.0,54.0,-100.00,NNE,15,11.0,18.0,60,0.00,,,-99.99,,2013-06-06 16:43:00,
2013-06-06 11:52:00,70.0,54.0,-100.00,NNE,15,12.0,15.0,57,0.00,,,-99.99,,2013-06-06 16:52:00,
2013-06-06 12:03:00,70.0,54.0,-100.00,NNE,15,12.0,15.0,57,0.00,,,-99.99,,2013-06-06 17:03:00,
2013-06-06 12:13:00,70.0,55.0,-100.00,NNE,25,12.0,16.0,58,0.00,,,-99.99,,2013-06-06 17:13:00,
2013-06-06 12:22:00,71.0,55.0,-100.00,NE,35,13.0,18.0,57,0.00,,,-99.99,,2013-06-06 17:22:00,
2013-06-06 12:33:00,72.0,55.0,-100.00,NE,40,6.0,16.0,56,0.00,,,-99.99,,2013-06-06 17:33:00,
2013-06-06 12:42:00,72.0,55.0,-100.00,NE,40,6.0,16.0,56,0.00,,,-99.99,,2013-06-06 17:42:00,
2013-06-06 12:52:00,70.0,55.0,-100.00,NE,35,10.0,16.0,60,0.00,,,-99.99,,2013-06-06 17:52:00,
2013-06-06 13:03:00,70.0,55.0,-100.00,NE,35,10.0,16.0,60,0.00,,,-99.99,,2013-06-06 18:03:00,
2013-06-06 13:13:00,70.0,56.0,-100.00,NNE,15,9.0,17.0,60,0.00,,,-99.99,,2013-06-06 18:13:00,
2013-06-06 13:23:00,70.0,55.0,-100.00,NNE,30,15.0,19.0,59,0.00,,,-99.99,,2013-06-06 18:23:00,
2013-06-06 13:33:00,73.0,57.0,-100.00,NNE,30,10.0,16.0,56,0.00,,,-99.99,,2013-06-06 18:33:00,
2013-06-06 13:43:00,73.0,57.0,-100.00,NNE,30,10.0,16.0,56,0.00,,,-99.99,,2013-06-06 18:43:00,
2013-06-06 13:52:00,71.0,53.0,-100.00,North,0,7.0,15.0,52,0.00,,,-99.99,,2013-06-06 18:52:00,
2013-06-06 14:03:00,71.0,53.0,-100.00,North,0,7.0,15.0,52,0.00,,,-99.99,,2013-06-06 19:03:00,
2013-06-06 14:12:00,71.0,53.0,-100.00,North,355,6.0,13.0,52,0.00,,,-99.99,,2013-06-06 19:12:00,
2013-06-06 14:23:00,71.0,52.0,-100.00,NE,45,7.0,14.0,51,0.00,,,-99.99,,2013-06-06 19:23:00,
2013-06-06 14:33:00,71.0,53.0,-100.00,North,0,6.0,13.0,52,0.00,,,-99.99,,2013-06-06 19:33:00,
2013-06-06 14:42:00,71.0,53.0,-100.00,North,0,6.0,13.0,52,0.00,,,-99.99,,2013-06-06 19:42:00,
2013-06-06 14:52:00,71.0,52.0,-100.00,NNE,15,10.0,14.0,50,0.00,,,-99.99,,2013-06-06 19:52:00,
2013-06-06 15:03:00,71.0,52.0,-100.00,NNE,15,10.0,14.0,50,0.00,,,-99.99,,2013-06-06 20:03:00,
2013-06-06 15:13:00,71.0,52.0,-100.00,NNE,15,12.0,17.0,50,0.00,,,-99.99,,2013-06-06 20:13:00,
2013-06-06 15:22:00,72.0,52.0,-100.00,NNE,30,12.0,17.0,49,0.00,,,-99.99,,2013-06-06 20:22:00,
2013-06-06 15:33:00,72.0,52.0,-100.00,North,10,12.0,16.0,50,0.00,,,-99.99,,2013-06-06 20:33:00,
2013-06-06 15:42:00,72.0,52.0,-100.00,North,10,12.0,16.0,50,0.00,,,-99.99,,2013-06-06 20:42:00,
2013-06-06 15:52:00,74.0,52.0,-100.00,NNE,20,7.0,14.0,47,0.00,,,-99.99,,2013-06-06 20:52:00,
2013-06-06 16:03:00,74.0,52.0,-100.00,NNE,20,7.0,14.0,47,0.00,,,-99.99,,2013-06-06 21:03:00,
2013-06-06 16:12:00,74.0,53.0,-100.00,NE,35,11.0,17.0,48,0.00,,,-99.99,,2013-06-06 21:12:00,
2013-06-06 16:22:00,73.0,52.0,-100.00,NE,45,7.0,17.0,48,0.00,,,-99.99,,2013-06-06 21:22:00,
2013-06-06 16:33:00,73.0,52.0,-100.00,NNE,30,11.0,17.0,47,0.00,,,-99.99,,2013-06-06 21:33:00,
2013-06-06 16:43:00,73.0,52.0,-100.00,NNE,30,11.0,17.0,47,0.00,,,-99.99,,2013-06-06 21:43:00,
2013-06-06 16:53:00,73.0,52.0,-100.00,NNE,15,10.0,12.0,46,0.00,,,-99.99,,2013-06-06 21:53:00,
2013-06-06 17:03:00,73.0,52.0,-100.00,NNE,15,10.0,12.0,46,0.00,,,-99.99,,2013-06-06 22:03:00,
2013-06-06 17:13:00,73.0,52.0,-100.00,North,10,12.0,15.0,46,0.00,,,-99.99,,2013-06-06 22:13:00,
2013-06-06 17:23:00,73.0,51.0,-100.00,NNE,30,11.0,14.0,46,0.00,,,-99.99,,2013-06-06 22:23:00,
2013-06-06 17:33:00,73.0,51.0,-100.00,North,0,10.0,14.0,45,0.00,,,-99.99,,2013-06-06 22:33:00,
2013-06-06 17:43:00,73.0,51.0,-100.00,North,0,10.0,14.0,45,0.00,,,-99.99,,2013-06-06 22:43:00,
2013-06-06 17:52:00,73.0,51.0,-100.00,North,0,9.0,14.0,45,0.00,,,-99.99,,2013-06-06 22:52:00,
2013-06-06 18:02:00,73.0,51.0,-100.00,North,0,9.0,14.0,45,0.00,,,-99.99,,2013-06-06 23:02:00,
2013-06-06 18:12:00,73.0,51.0,-100.00,North,5,11.0,16.0,45,0.00,,,-99.99,,2013-06-06 23:12:00,
2013-06-06 18:22:00,74.0,51.0,-100.00,North,5,10.0,13.0,45,0.00,,,-99.99,,2013-06-06 23:22:00,
2013-06-06 18:33:00,74.0,52.0,-100.00,North,0,11.0,13.0,45,0.00,,,-99.99,,2013-06-06 23:33:00,
2013-06-06 18:42:00,74.0,52.0,-100.00,North,0,11.0,13.0,45,0.00,,,-99.99,,2013-06-06 23:42:00,
2013-06-06 18:52:00,72.0,50.0,-100.00,NNE,15,14.0,17.0,45,0.00,,,-99.99,,2013-06-06 23:52:00,
2013-06-06 19:02:00,72.0,50.0,-100.00,NNE,15,14.0,17.0,45,0.00,,,-99.99,,2013-06-07 00:02:00,
2013-06-06 19:12:00,72.0,50.0,-100.00,NNE,30,15.0,17.0,46,0.00,,,-99.99,,2013-06-07 00:12:00,
2013-06-06 19:22:00,72.0,50.0,-100.00,NE,40,13.0,18.0,46,0.00,,,-99.99,,2013-06-07 00:22:00,
2013-06-06 19:32:00,71.0,51.0,-100.00,NE,45,11.0,14.0,49,0.00,,,-99.99,,2013-06-07 00:32:00,
2013-06-06 19:42:00,71.0,51.0,-100.00,NE,45,11.0,14.0,49,0.00,,,-99.99,,2013-06-07 00:42:00,
2013-06-06 19:52:00,71.0,51.0,-100.00,NNE,30,12.0,16.0,49,0.00,,,-99.99,,2013-06-07 00:52:00,
2013-06-06 20:02:00,71.0,51.0,-100.00,NNE,30,12.0,16.0,49,0.00,,,-99.99,,2013-06-07 01:02:00,
2013-06-06 20:12:00,71.0,50.0,-100.00,NNE,15,14.0,17.0,47,0.00,,,-99.99,,2013-06-07 01:12:00,
2013-06-06 20:22:00,70.0,49.0,-100.00,NNE,15,12.0,17.0,47,0.00,,,-99.99,,2013-06-07 01:22:00,
2013-06-06 20:32:00,69.0,50.0,-100.00,NNE,25,11.0,12.0,51,0.00,,,-99.99,,2013-06-07 01:32:00,
2013-06-06 20:42:00,69.0,50.0,-100.00,NNE,25,11.0,12.0,51,0.00,,,-99.99,,2013-06-07 01:42:00,
2013-06-06 20:52:00,67.0,51.0,-100.00,NE,40,7.0,12.0,56,0.00,,,-99.99,,2013-06-07 01:52:00,
2013-06-06 21:02:00,67.0,51.0,-100.00,NE,40,7.0,12.0,56,0.00,,,-99.99,,2013-06-07 02:02:00,
2013-06-06 21:12:00,66.0,51.0,-100.00,NE,40,8.0,11.0,57,0.00,,,-99.99,,2013-06-07 02:12:00,
2013-06-06 21:22:00,66.0,51.0,-100.00,NE,45,7.0,10.0,59,0.00,,,-99.99,,2013-06-07 02:22:00,
2013-06-06 21:32:00,64.0,52.0,-100.00,NE,35,6.0,7.0,64,0.00,,,-99.99,,2013-06-07 02:32:00,
2013-06-06 21:42:00,64.0,52.0,-100.00,NE,35,6.0,7.0,64,0.00,,,-99.99,,2013-06-07 02:42:00,
2013-06-06 21:52:00,63.0,53.0,-100.00,NNE,30,6.0,7.0,68,0.18,,,-99.99,,2013-06-07 02:52:00,
2013-06-06 22:02:00,63.0,53.0,-100.00,NNE,30,6.0,7.0,68,0.18,,,-99.99,,2013-06-07 03:02:00,
2013-06-06 22:12:00,63.0,53.0,-100.00,NNE,30,6.0,7.0,70,0.00,,,-99.99,,2013-06-07 03:12:00,
2013-06-06 22:22:00,63.0,53.0,-100.00,NNE,30,7.0,9.0,70,0.00,,,-99.99,,2013-06-07 03:22:00,
2013-06-06 22:33:00,63.0,54.0,-100.00,NNE,25,7.0,9.0,71,0.00,,,-99.99,,2013-06-07 03:33:00,
2013-06-06 22:43:00,63.0,54.0,-100.00,NNE,25,7.0,9.0,71,0.00,,,-99.99,,2013-06-07 03:43:00,
2013-06-06 22:53:00,64.0,53.0,-100.00,NNE,15,6.0,8.0,67,0.00,,,-99.99,,2013-06-07 03:53:00,
2013-06-06 23:03:00,64.0,53.0,-100.00,NNE,15,6.0,8.0,67,0.00,,,-99.99,,2013-06-07 04:03:00,
2013-06-06 23:12:00,63.0,54.0,-100.00,NNW,340,4.0,7.0,71,0.00,,,-99.99,,2013-06-07 04:12:00,
2013-06-06 23:22:00,63.0,55.0,-100.00,North,355,4.0,6.0,74,0.00,,,-99.99,,2013-06-07 04:22:00,
2013-06-06 23:33:00,64.0,54.0,-100.00,North,5,4.0,8.0,70,0.00,,,-99.99,,2013-06-07 04:33:00,
2013-06-06 23:42:00,64.0,54.0,-100.00,North,5,4.0,8.0,70,0.00,,,-99.99,,2013-06-07 04:42:00,
2013-06-06 23:53:00,63.0,55.0,-100.00,North,350,4.0,6.0,76,0.00,,,-99.99,,2013-06-07 04:53:00,